createdAt,value
2023-01-29T00:00:20.348Z,13.43
2023-01-29T00:02:47.023Z,13.23
2023-01-29T00:05:27.034Z,13.30
2023-01-29T00:07:55.445Z,13.25
2023-01-29T00:10:22.415Z,12.85
2023-01-29T00:12:48.897Z,13.48
2023-01-29T00:15:15.516Z,12.32
2023-01-29T00:17:41.926Z,13.23
2023-01-29T00:20:09.326Z,13.63
2023-01-29T00:22:36.703Z,13.25
2023-01-29T00:25:03.571Z,13.02
2023-01-29T00:27:30.087Z,13.63
2023-01-29T00:30:09.577Z,13.55
2023-01-29T00:32:36.399Z,14.38
2023-01-29T00:35:03.588Z,14.18
2023-01-29T00:37:30.293Z,13.68
2023-01-29T00:39:57.150Z,13.60
2023-01-29T00:42:42.410Z,14.45
2023-01-29T00:45:11.674Z,13.85
2023-01-29T00:47:38.226Z,13.70
2023-01-29T00:50:11.224Z,12.95
2023-01-29T00:52:38.507Z,13.15
2023-01-29T00:55:06.143Z,15.05
2023-01-29T00:57:34.184Z,13.55
2023-01-29T01:00:01.816Z,13.40
2023-01-29T01:02:47.368Z,13.82
2023-01-29T01:05:19.572Z,14.00
2023-01-29T01:07:51.584Z,13.13
2023-01-29T01:10:31.238Z,13.25
2023-01-29T01:13:00.553Z,13.48
2023-01-29T01:15:30.641Z,12.68
2023-01-29T01:17:59.816Z,13.02
2023-01-29T01:20:28.289Z,12.50
2023-01-29T01:22:55.462Z,12.43
2023-01-29T01:25:24.142Z,12.50
2023-01-29T01:27:54.931Z,12.32
2023-01-29T01:30:22.284Z,12.73
2023-01-29T01:32:49.137Z,12.27
2023-01-29T01:35:15.996Z,12.90
2023-01-29T01:37:42.880Z,12.63
2023-01-29T01:40:20.902Z,12.23
2023-01-29T01:42:52.795Z,11.90
2023-01-29T01:47:52.432Z,10.32
2023-01-29T01:50:24.191Z,11.88
2023-01-29T01:55:25.331Z,10.73
2023-01-29T01:57:57.635Z,12.00
2023-01-29T02:00:26.741Z,12.48
2023-01-29T02:03:13.769Z,12.10
2023-01-29T02:06:00.512Z,12.15
2023-01-29T02:08:58.019Z,12.75
2023-01-29T02:11:25.104Z,11.45
2023-01-29T02:13:53.525Z,11.52
2023-01-29T02:16:25.467Z,12.10
2023-01-29T02:18:52.356Z,12.50
2023-01-29T02:21:36.163Z,12.15
2023-01-29T02:24:33.951Z,12.32
2023-01-29T02:27:16.782Z,12.45
2023-01-29T02:30:09.143Z,11.80
2023-01-29T02:32:54.408Z,12.15
2023-01-29T02:35:31.941Z,12.27
2023-01-29T02:38:24.893Z,12.30
2023-01-29T02:41:10.556Z,12.60
2023-01-29T02:44:07.843Z,12.95
2023-01-29T02:46:51.148Z,13.20
2023-01-29T02:49:31.682Z,12.40
2023-01-29T02:52:36.441Z,13.15
2023-01-29T02:55:21.859Z,12.52
2023-01-29T02:57:53.877Z,13.63
2023-01-29T03:00:43.370Z,13.02
2023-01-29T03:03:25.700Z,12.45
2023-01-29T03:06:02.253Z,12.40
2023-01-29T03:08:43.088Z,12.88
2023-01-29T03:11:15.554Z,13.52
2023-01-29T03:13:45.976Z,14.80
2023-01-29T03:16:21.907Z,13.00
2023-01-29T03:18:55.264Z,13.40
2023-01-29T03:21:55.063Z,13.82
2023-01-29T03:25:06.752Z,13.30
2023-01-29T03:28:03.764Z,13.68
2023-01-29T03:33:35.561Z,13.88
2023-01-29T03:36:08.869Z,12.85
2023-01-29T03:38:35.427Z,13.43
2023-01-29T03:41:15.683Z,13.98
2023-01-29T03:44:01.500Z,15.55
2023-01-29T03:46:38.479Z,14.65
2023-01-29T03:49:26.848Z,14.23
2023-01-29T03:52:18.860Z,14.93
2023-01-29T03:55:18.513Z,14.67
2023-01-29T03:58:00.251Z,14.55
2023-01-29T04:00:30.527Z,15.73
2023-01-29T04:03:17.939Z,15.73
2023-01-29T04:06:09.862Z,14.77
2023-01-29T04:08:50.522Z,15.40
2023-01-29T04:11:19.892Z,15.02
2023-01-29T04:13:48.231Z,14.82
2023-01-29T04:16:24.349Z,15.13
2023-01-29T04:19:00.993Z,14.68
2023-01-29T04:21:32.947Z,14.13
2023-01-29T04:23:59.733Z,15.48
2023-01-29T04:27:03.908Z,14.82
2023-01-29T04:30:03.302Z,14.90
2023-01-29T04:32:48.058Z,14.95
2023-01-29T04:35:36.215Z,14.57
2023-01-29T04:38:12.681Z,14.27
2023-01-29T04:41:05.258Z,15.15
2023-01-29T04:43:54.230Z,15.77
2023-01-29T04:46:33.369Z,15.60
2023-01-29T04:49:17.709Z,13.82
2023-01-29T04:51:49.455Z,14.93
2023-01-29T04:57:16.863Z,13.77
2023-01-29T04:59:50.839Z,14.60
2023-01-29T05:02:19.429Z,13.93
2023-01-29T05:04:46.942Z,15.85
2023-01-29T05:07:15.500Z,15.43
2023-01-29T05:09:45.400Z,15.13
2023-01-29T05:12:14.397Z,14.82
2023-01-29T05:14:44.037Z,15.52
2023-01-29T05:17:16.748Z,15.25
2023-01-29T05:19:43.471Z,14.55
2023-01-29T05:22:13.126Z,15.30
2023-01-29T05:24:39.646Z,15.65
2023-01-29T05:27:25.063Z,16.08
2023-01-29T05:29:51.523Z,15.82
2023-01-29T05:32:17.957Z,15.93
2023-01-29T05:34:44.447Z,15.95
2023-01-29T05:37:11.211Z,16.13
2023-01-29T05:39:37.678Z,16.33
2023-01-29T05:42:04.262Z,15.88
2023-01-29T05:44:30.790Z,15.82
2023-01-29T05:46:57.337Z,15.73
2023-01-29T05:49:24.066Z,16.33
2023-01-29T05:51:50.604Z,16.02
2023-01-29T05:54:17.062Z,15.60
2023-01-29T05:56:43.497Z,16.23
2023-01-29T05:59:10.044Z,16.15
2023-01-29T06:01:39.599Z,16.27
2023-01-29T06:04:08.579Z,16.83
2023-01-29T06:06:48.962Z,15.25
2023-01-29T06:09:15.483Z,15.88
2023-01-29T06:11:41.917Z,15.20
2023-01-29T06:14:08.415Z,16.20
2023-01-29T06:16:34.997Z,16.77
2023-01-29T06:19:01.650Z,16.17
2023-01-29T06:21:28.187Z,15.65
2023-01-29T06:23:54.793Z,16.40
2023-01-29T06:26:21.328Z,16.05
2023-01-29T06:28:51.411Z,15.65
2023-01-29T06:31:37.925Z,15.40
2023-01-29T06:34:05.411Z,15.25
2023-01-29T06:36:31.892Z,14.63
2023-01-29T06:38:58.401Z,16.25
2023-01-29T06:41:25.680Z,15.10
2023-01-29T06:43:52.806Z,15.63
2023-01-29T06:46:19.591Z,14.27
2023-01-29T06:48:46.179Z,15.68
2023-01-29T06:51:12.726Z,15.00
2023-01-29T06:53:39.566Z,14.50
2023-01-29T06:56:06.612Z,14.80
2023-01-29T06:58:33.605Z,15.60
2023-01-29T07:01:15.509Z,14.60
2023-01-29T07:03:52.053Z,14.48
2023-01-29T07:06:18.891Z,15.00
2023-01-29T07:08:45.555Z,14.52
2023-01-29T07:11:12.489Z,15.18
2023-01-29T07:13:38.977Z,15.15
2023-01-29T07:16:06.843Z,14.40
2023-01-29T07:18:33.355Z,15.82
2023-01-29T07:21:04.500Z,14.40
2023-01-29T07:23:30.958Z,15.82
2023-01-29T07:26:01.141Z,15.20
2023-01-29T07:28:27.643Z,15.23
2023-01-29T07:31:00.493Z,15.55
2023-01-29T07:33:27.095Z,14.38
2023-01-29T07:35:53.804Z,15.20
2023-01-29T07:38:20.458Z,14.65
2023-01-29T07:40:47.108Z,14.55
2023-01-29T07:43:13.992Z,15.15
2023-01-29T07:45:40.816Z,14.98
2023-01-29T07:48:10.787Z,15.52
2023-01-29T07:50:37.764Z,15.30
2023-01-29T07:53:04.621Z,13.38
2023-01-29T07:55:32.589Z,14.45
2023-01-29T07:58:01.252Z,15.07
2023-01-29T08:00:28.643Z,15.02
2023-01-29T08:03:05.205Z,14.40
2023-01-29T08:05:31.660Z,14.43
2023-01-29T08:08:06.412Z,15.02
2023-01-29T08:10:34.555Z,14.48
2023-01-29T08:13:02.000Z,15.55
2023-01-29T08:15:29.553Z,15.75
2023-01-29T08:20:42.777Z,14.00
2023-01-29T08:23:14.279Z,12.95
2023-01-29T08:25:41.565Z,13.45
2023-01-29T08:28:08.714Z,14.32
2023-01-29T08:30:36.152Z,14.02
2023-01-29T08:33:04.555Z,14.25
2023-01-29T08:35:31.246Z,14.13
2023-01-29T08:38:00.083Z,14.18
2023-01-29T08:40:28.676Z,14.02
2023-01-29T08:43:03.199Z,14.52
2023-01-29T08:45:32.976Z,14.43
2023-01-29T08:47:59.530Z,13.70
2023-01-29T08:50:26.141Z,14.05
2023-01-29T08:52:58.221Z,14.52
2023-01-29T08:55:25.331Z,13.75
2023-01-29T08:57:51.791Z,13.48
2023-01-29T09:00:18.929Z,13.15
2023-01-29T09:02:45.543Z,13.82
2023-01-29T09:05:12.115Z,13.35
2023-01-29T09:07:38.708Z,13.98
2023-01-29T09:10:05.742Z,14.85
2023-01-29T09:12:32.399Z,13.68
2023-01-29T09:14:58.914Z,13.70
2023-01-29T09:17:25.449Z,14.45
2023-01-29T09:19:53.057Z,14.55
2023-01-29T09:22:20.620Z,14.35
2023-01-29T09:24:47.110Z,14.15
2023-01-29T09:27:13.630Z,13.73
2023-01-29T09:29:40.084Z,14.90
2023-01-29T09:32:07.162Z,13.40
2023-01-29T09:34:34.472Z,14.15
2023-01-29T09:37:01.061Z,14.73
2023-01-29T09:39:27.644Z,14.93
2023-01-29T09:42:20.635Z,13.73
2023-01-29T09:45:10.773Z,14.77
2023-01-29T09:47:37.441Z,14.18
2023-01-29T09:50:18.426Z,14.15
2023-01-29T09:52:55.718Z,14.98
2023-01-29T09:55:29.082Z,14.50
2023-01-29T09:58:03.604Z,12.93
2023-01-29T10:00:39.699Z,14.38
2023-01-29T10:03:09.145Z,14.50
2023-01-29T10:06:08.625Z,14.77
2023-01-29T10:09:13.784Z,14.77
2023-01-29T10:11:51.799Z,14.45
2023-01-29T10:14:25.037Z,14.93
2023-01-29T10:17:29.030Z,14.18
2023-01-29T10:20:34.724Z,13.50
2023-01-29T10:23:21.561Z,13.50
2023-01-29T10:25:49.421Z,14.73
2023-01-29T10:28:22.097Z,14.38
2023-01-29T10:30:51.869Z,14.68
2023-01-29T10:33:49.323Z,14.57
2023-01-29T10:36:46.599Z,14.95
2023-01-29T10:39:24.635Z,14.25
2023-01-29T10:42:10.126Z,14.13
2023-01-29T10:45:00.614Z,14.82
2023-01-29T10:48:21.412Z,15.63
2023-01-29T10:50:54.261Z,13.75
2023-01-29T10:53:34.766Z,14.38
2023-01-29T10:56:21.858Z,14.98
2023-01-29T10:58:56.756Z,15.18
2023-01-29T11:01:23.911Z,15.23
2023-01-29T11:03:58.550Z,14.50
2023-01-29T11:06:36.107Z,15.85
2023-01-29T11:09:21.052Z,16.80
2023-01-29T11:11:53.006Z,14.95
2023-01-29T11:14:53.199Z,16.05
2023-01-29T11:17:23.212Z,15.25
2023-01-29T11:19:51.722Z,15.80
2023-01-29T11:22:26.520Z,16.42
2023-01-29T11:25:32.766Z,15.70
2023-01-29T11:28:01.756Z,15.75
2023-01-29T11:30:35.650Z,16.92
2023-01-29T11:33:23.784Z,16.25
2023-01-29T11:35:52.539Z,16.88
2023-01-29T11:38:23.569Z,16.65
2023-01-29T11:40:50.252Z,16.37
2023-01-29T11:43:32.987Z,16.90
2023-01-29T11:46:05.922Z,16.45
2023-01-29T11:48:40.786Z,16.83
2023-01-29T11:51:08.941Z,16.92
2023-01-29T11:53:40.188Z,16.73
2023-01-29T11:56:17.684Z,18.25
2023-01-29T11:58:46.229Z,17.20
2023-01-29T12:01:16.313Z,15.05
2023-01-29T12:03:48.765Z,16.80
2023-01-29T12:06:21.773Z,17.77
2023-01-29T12:09:01.405Z,17.38
2023-01-29T12:11:31.711Z,17.42
2023-01-29T12:14:03.162Z,18.88
2023-01-29T12:16:55.027Z,18.67
2023-01-29T12:19:40.624Z,18.52
2023-01-29T12:22:44.432Z,18.65
2023-01-29T12:25:41.389Z,16.75
2023-01-29T12:28:27.859Z,17.80
2023-01-29T12:31:36.637Z,16.73
2023-01-29T12:34:20.616Z,17.45
2023-01-29T12:36:55.394Z,16.83
2023-01-29T12:39:22.099Z,17.30
2023-01-29T12:41:58.059Z,17.85
2023-01-29T12:44:33.528Z,18.38
2023-01-29T12:47:05.355Z,17.83
2023-01-29T12:52:07.055Z,15.80
2023-01-29T12:54:45.781Z,16.92
2023-01-29T12:57:34.430Z,17.42
2023-01-29T13:00:13.451Z,16.77
2023-01-29T13:02:49.833Z,18.75
2023-01-29T13:05:25.642Z,18.48
2023-01-29T13:08:02.987Z,17.95
2023-01-29T13:10:36.859Z,18.50
2023-01-29T13:13:44.664Z,18.98
2023-01-29T13:16:13.613Z,18.27
2023-01-29T13:18:52.837Z,18.90
2023-01-29T13:21:23.652Z,18.27
2023-01-29T13:23:53.323Z,18.85
2023-01-29T13:26:21.858Z,18.15
2023-01-29T13:28:49.589Z,18.73
2023-01-29T13:31:40.715Z,18.52
2023-01-29T13:34:15.181Z,17.23
2023-01-29T13:36:48.197Z,18.98
2023-01-29T13:39:29.455Z,18.80
2023-01-29T13:41:58.207Z,18.17
2023-01-29T13:44:34.418Z,19.73
2023-01-29T13:47:05.171Z,18.00
2023-01-29T13:50:07.700Z,17.95
2023-01-29T13:52:54.761Z,18.27
2023-01-29T13:55:31.038Z,18.17
2023-01-29T13:58:02.509Z,18.63
2023-01-29T14:00:34.745Z,18.33
2023-01-29T14:03:01.166Z,18.05
2023-01-29T14:05:30.804Z,18.15
2023-01-29T14:07:59.431Z,16.58
2023-01-29T14:10:33.913Z,17.33
2023-01-29T14:13:03.405Z,17.73
2023-01-29T14:15:41.851Z,16.67
2023-01-29T14:18:08.426Z,18.13
2023-01-29T14:20:46.716Z,17.17
2023-01-29T14:23:25.221Z,17.58
2023-01-29T14:25:51.973Z,16.92
2023-01-29T14:28:24.808Z,16.17
2023-01-29T14:30:52.417Z,17.42
2023-01-29T14:33:37.838Z,16.75
2023-01-29T14:36:13.229Z,16.88
2023-01-29T14:38:46.269Z,16.75
2023-01-29T14:41:18.855Z,16.88
2023-01-29T14:43:45.392Z,18.02
2023-01-29T14:46:33.742Z,16.85
2023-01-29T14:49:00.960Z,15.23
2023-01-29T14:51:34.634Z,16.77
2023-01-29T14:54:13.218Z,15.90
2023-01-29T14:56:50.643Z,17.25
2023-01-29T14:59:22.062Z,16.10
2023-01-29T15:01:56.059Z,16.50
2023-01-29T15:04:27.295Z,15.82
2023-01-29T15:07:04.714Z,16.75
2023-01-29T15:09:36.695Z,16.33
2023-01-29T15:12:14.242Z,16.73
2023-01-29T15:14:52.300Z,15.55
2023-01-29T15:17:25.083Z,16.30
2023-01-29T15:19:51.714Z,16.02
2023-01-29T15:22:20.388Z,15.98
2023-01-29T15:25:01.836Z,14.65
2023-01-29T15:27:28.680Z,16.00
2023-01-29T15:30:02.372Z,16.15
2023-01-29T15:32:37.639Z,16.33
2023-01-29T15:35:20.223Z,17.17
2023-01-29T15:38:14.095Z,16.27
2023-01-29T15:40:40.732Z,16.42
2023-01-29T15:43:22.574Z,15.32
2023-01-29T15:48:20.573Z,14.55
2023-01-29T15:50:50.862Z,15.27
2023-01-29T15:53:25.197Z,16.23
2023-01-29T15:55:51.820Z,16.42
2023-01-29T15:58:22.802Z,17.27
2023-01-29T16:00:55.382Z,15.93
2023-01-29T16:03:28.127Z,15.98
2023-01-29T16:05:55.312Z,17.10
2023-01-29T16:08:23.662Z,15.32
2023-01-29T16:10:56.529Z,16.85
2023-01-29T16:13:26.136Z,19.05
2023-01-29T16:16:19.599Z,16.42
2023-01-29T16:18:59.517Z,23.98
2023-01-29T16:21:37.784Z,16.98
2023-01-29T16:24:13.848Z,15.82
2023-01-29T16:26:44.800Z,15.88
2023-01-29T16:29:14.731Z,17.63
2023-01-29T16:31:44.345Z,16.20
2023-01-29T16:34:34.940Z,15.18
2023-01-29T16:37:05.432Z,16.05
2023-01-29T16:39:45.953Z,14.30
2023-01-29T16:42:12.885Z,14.90
2023-01-29T16:44:45.583Z,16.73
2023-01-29T16:47:14.562Z,14.82
2023-01-29T16:49:45.457Z,19.27
2023-01-29T16:52:20.270Z,18.07
2023-01-29T16:54:46.897Z,15.40
2023-01-29T16:57:21.502Z,15.75
2023-01-29T16:59:48.903Z,12.55
2023-01-29T17:02:26.456Z,16.65
2023-01-29T17:04:57.191Z,15.52
2023-01-29T17:07:23.756Z,15.45
2023-01-29T17:09:54.596Z,15.77
2023-01-29T17:12:23.918Z,17.63
2023-01-29T17:15:05.929Z,17.17
2023-01-29T17:20:14.161Z,16.13
2023-01-29T17:22:40.824Z,10.90
2023-01-29T17:25:07.733Z,17.67
2023-01-29T17:27:34.227Z,17.67
2023-01-29T17:30:00.862Z,16.95
2023-01-29T17:32:39.903Z,19.15
2023-01-29T17:35:13.963Z,13.43
2023-01-29T17:37:40.823Z,17.77
2023-01-29T17:40:47.510Z,18.23
2023-01-29T17:43:14.111Z,17.40
2023-01-29T17:45:41.261Z,17.45
2023-01-29T17:48:12.749Z,18.30
2023-01-29T17:50:40.817Z,17.17
2023-01-29T17:53:07.294Z,17.23
2023-01-29T17:55:33.814Z,17.70
2023-01-29T17:58:00.321Z,18.83
2023-01-29T18:00:26.793Z,18.52
2023-01-29T18:02:54.275Z,17.75
2023-01-29T18:05:20.987Z,18.73
2023-01-29T18:07:47.949Z,17.40
2023-01-29T18:10:20.327Z,18.33
2023-01-29T18:12:47.340Z,17.08
2023-01-29T18:15:13.916Z,19.02
2023-01-29T18:17:41.295Z,17.83
2023-01-29T18:20:25.832Z,17.70
2023-01-29T18:22:52.943Z,15.73
2023-01-29T18:25:19.880Z,18.98
2023-01-29T18:27:46.526Z,17.50
2023-01-29T18:30:13.875Z,16.83
2023-01-29T18:32:40.612Z,17.10
2023-01-29T18:35:08.099Z,15.80
2023-01-29T18:37:34.751Z,16.60
2023-01-29T18:40:01.284Z,17.80
2023-01-29T18:42:31.263Z,17.60
2023-01-29T18:44:57.756Z,18.02
2023-01-29T18:47:24.408Z,18.83
2023-01-29T18:49:51.845Z,17.25
2023-01-29T18:52:18.477Z,16.38
2023-01-29T18:54:44.900Z,16.98
2023-01-29T18:57:14.921Z,16.17
2023-01-29T18:59:58.090Z,17.15
2023-01-29T19:02:24.818Z,18.90
2023-01-29T19:04:51.666Z,16.67
2023-01-29T19:07:18.134Z,17.33
2023-01-29T19:09:46.554Z,16.63
2023-01-29T19:12:13.165Z,17.70
2023-01-29T19:14:39.690Z,16.98
2023-01-29T19:17:06.348Z,16.35
2023-01-29T19:19:33.011Z,17.05
2023-01-29T19:21:59.627Z,17.08
2023-01-29T19:24:27.515Z,17.45
2023-01-29T19:26:54.100Z,15.52
2023-01-29T19:29:20.687Z,16.88
2023-01-29T19:31:47.610Z,17.58
2023-01-29T19:34:14.260Z,15.63
2023-01-29T19:36:40.915Z,17.63
2023-01-29T19:39:07.373Z,16.02
2023-01-29T19:41:34.857Z,16.40
2023-01-29T19:44:01.369Z,16.55
2023-01-29T19:46:30.072Z,16.92
2023-01-29T19:48:58.534Z,17.42
2023-01-29T19:51:27.226Z,16.85
2023-01-29T19:53:55.349Z,16.92
2023-01-29T19:56:21.826Z,16.55
2023-01-29T19:58:48.408Z,18.17
2023-01-29T20:01:20.844Z,16.30
2023-01-29T20:03:48.953Z,18.48
2023-01-29T20:06:18.067Z,12.55
2023-01-29T20:08:47.139Z,18.30
2023-01-29T20:11:15.136Z,17.75
2023-01-29T20:13:41.911Z,16.85
2023-01-29T20:16:08.856Z,17.35
2023-01-29T20:18:35.356Z,17.17
2023-01-29T20:21:16.429Z,15.98
2023-01-29T20:23:45.030Z,18.42
2023-01-29T20:26:14.763Z,17.23
2023-01-29T20:28:41.966Z,18.23
2023-01-29T20:31:09.797Z,17.85
2023-01-29T20:33:39.164Z,19.48
2023-01-29T20:36:09.041Z,17.45
2023-01-29T20:38:35.849Z,17.85
2023-01-29T20:41:07.958Z,18.23
2023-01-29T20:43:34.872Z,18.40
2023-01-29T20:46:02.352Z,18.02
2023-01-29T20:48:29.810Z,17.20
2023-01-29T20:50:56.967Z,19.02
2023-01-29T20:53:23.424Z,19.63
2023-01-29T20:55:50.007Z,18.48
2023-01-29T20:58:16.545Z,17.33
2023-01-29T21:00:44.268Z,17.63
2023-01-29T21:03:10.769Z,17.65
2023-01-29T21:05:37.239Z,18.35
2023-01-29T21:08:03.746Z,18.08
2023-01-29T21:10:30.186Z,18.25
2023-01-29T21:12:56.864Z,17.77
2023-01-29T21:15:24.644Z,18.75
2023-01-29T21:17:52.301Z,17.60
2023-01-29T21:20:19.071Z,17.50
2023-01-29T21:22:45.743Z,18.30
2023-01-29T21:25:12.256Z,14.60
2023-01-29T21:27:38.720Z,19.35
2023-01-29T21:30:05.876Z,18.25
2023-01-29T21:32:32.536Z,17.83
2023-01-29T21:34:59.039Z,17.38
2023-01-29T21:37:25.612Z,17.58
2023-01-29T21:39:52.159Z,17.23
2023-01-29T21:42:37.335Z,18.73
2023-01-29T21:45:04.285Z,17.70
2023-01-29T21:47:30.715Z,18.40
2023-01-29T21:49:57.135Z,17.73
2023-01-29T21:52:23.631Z,18.35
2023-01-29T21:54:50.248Z,17.13
2023-01-29T21:57:16.923Z,18.33
2023-01-29T21:59:43.486Z,18.58
2023-01-29T22:02:17.307Z,16.55
2023-01-29T22:04:43.932Z,17.52
2023-01-29T22:07:11.521Z,18.45
2023-01-29T22:09:38.503Z,18.23
2023-01-29T22:12:08.989Z,17.73
2023-01-29T22:14:35.724Z,16.67
2023-01-29T22:17:02.245Z,18.27
2023-01-29T22:19:29.422Z,17.98
2023-01-29T22:21:56.365Z,18.73
2023-01-29T22:24:23.498Z,18.40
2023-01-29T22:26:50.133Z,17.85
2023-01-29T22:29:17.350Z,18.23
2023-01-29T22:31:44.468Z,17.58
2023-01-29T22:34:12.560Z,18.45
2023-01-29T22:36:39.102Z,18.33
2023-01-29T22:39:09.278Z,17.85
2023-01-29T22:41:36.356Z,17.88
2023-01-29T22:44:02.997Z,18.38
2023-01-29T22:46:29.601Z,16.42
2023-01-29T22:48:56.513Z,18.25
2023-01-29T22:51:23.368Z,18.00
2023-01-29T22:53:54.704Z,17.80
2023-01-29T22:56:26.239Z,17.65
2023-01-29T22:58:54.722Z,17.17
2023-01-29T23:01:22.938Z,18.08
2023-01-29T23:03:49.618Z,18.27
2023-01-29T23:06:16.670Z,18.88
2023-01-29T23:08:43.166Z,18.77
2023-01-29T23:11:14.721Z,17.20
2023-01-29T23:13:46.894Z,19.15
2023-01-29T23:16:15.219Z,17.52
2023-01-29T23:18:42.105Z,18.00
2023-01-29T23:21:09.488Z,17.60
2023-01-29T23:23:37.253Z,18.25
2023-01-29T23:26:25.286Z,18.98
2023-01-29T23:28:51.951Z,15.38
2023-01-29T23:31:18.955Z,16.55
2023-01-29T23:33:45.495Z,17.23
2023-01-29T23:36:12.293Z,16.77
2023-01-29T23:38:39.299Z,16.23
2023-01-29T23:41:06.229Z,15.73
2023-01-29T23:43:32.968Z,16.83
2023-01-29T23:45:59.669Z,15.48
2023-01-29T23:48:26.159Z,16.40
2023-01-29T23:50:52.645Z,16.13
2023-01-29T23:53:19.200Z,16.02
2023-01-29T23:55:56.095Z,16.02
2023-01-29T23:58:22.792Z,16.17
